Aviation Digital Data Service (ADDS)

Output produced by METARs form (1645 UTC 16 June 2019)
found at http://www.aviationweather.gov/metar/data/
 
METAR text: OMFJ 161600Z 15006KT 7000 NSC 34/29 Q0998 RMK A2948
Conditions at: OMFJ (FUJAIRAH INTL AR, AE) observed 1600 UTC 16 June 2019
Temperature: 34.0°C (93°F)
Dewpoint: 29.0°C (84°F) [RH = 75%]
Pressure (altimeter): 29.47 inches Hg (998.0 mb)
Winds: from the SSE (150 degrees) at 7 MPH (6 knots; 3.1 m/s)
Visibility: 4 miles ( 7 km)
Ceiling: at least 12,000 feet AGL
Clouds: sky clear below 12,000 feet AGL
Weather: no significant weather observed at this time

METAR text: OMFJ 161500Z 14006KT 7000 NSC 35/29 Q0998 RMK A2948
Conditions at: OMFJ (FUJAIRAH INTL AR, AE) observed 1500 UTC 16 June 2019
Temperature: 35.0°C (95°F)
Dewpoint: 29.0°C (84°F) [RH = 71%]
Pressure (altimeter): 29.47 inches Hg (998.0 mb)
Winds: from the SE (140 degrees) at 7 MPH (6 knots; 3.1 m/s)
Visibility: 4 miles ( 7 km)
Ceiling: at least 12,000 feet AGL
Clouds: sky clear below 12,000 feet AGL
Weather: no significant weather observed at this time

METAR text: OMFJ 161400Z 14007KT 7000 NSC 36/26 Q0998 A2947
Conditions at: OMFJ (FUJAIRAH INTL AR, AE) observed 1400 UTC 16 June 2019
Temperature: 36.0°C (97°F)
Dewpoint: 26.0°C (79°F) [RH = 57%]
Pressure (altimeter): 29.47 inches Hg (998.0 mb)
Winds: from the SE (140 degrees) at 8 MPH (7 knots; 3.6 m/s)
Visibility: 4 miles ( 7 km)
Ceiling: at least 12,000 feet AGL
Clouds: sky clear below 12,000 feet AGL
Weather: no significant weather observed at this time

METAR text: OMFJ 161300Z 11006KT 070V140 7000 NSC 36/28 Q0998 RMK A2948
Conditions at: OMFJ (FUJAIRAH INTL AR, AE) observed 1300 UTC 16 June 2019
Temperature: 36.0°C (97°F)
Dewpoint: 28.0°C (82°F) [RH = 64%]
Pressure (altimeter): 29.47 inches Hg (998.0 mb)
Winds: from the ESE (110 degrees) at 7 MPH (6 knots; 3.1 m/s)
Visibility: 4 miles ( 7 km)
Ceiling: at least 12,000 feet AGL
Clouds: sky clear below 12,000 feet AGL
Weather: no significant weather observed at this time

METAR text: OMFJ 161200Z 12008KT 080V150 8000 NSC 38/26 Q0998 RMK A2949
Conditions at: OMFJ (FUJAIRAH INTL AR, AE) observed 1200 UTC 16 June 2019
Temperature: 38.0°C (100°F)
Dewpoint: 26.0°C (79°F) [RH = 51%]
Pressure (altimeter): 29.47 inches Hg (998.0 mb)
Winds: from the ESE (120 degrees) at 9 MPH (8 knots; 4.1 m/s)
Visibility: 5 miles ( 8 km)
Ceiling: at least 12,000 feet AGL
Clouds: sky clear below 12,000 feet AGL
Weather: no significant weather observed at this time

METAR text: OMFJ 161100Z 10008KT 060V130 8000 NSC 38/25 Q0999 A2950
Conditions at: OMFJ (FUJAIRAH INTL AR, AE) observed 1100 UTC 16 June 2019
Temperature: 38.0°C (100°F)
Dewpoint: 25.0°C (77°F) [RH = 48%]
Pressure (altimeter): 29.50 inches Hg (999.0 mb)
Winds: from the E (100 degrees) at 9 MPH (8 knots; 4.1 m/s)
Visibility: 5 miles ( 8 km)
Ceiling: at least 12,000 feet AGL
Clouds: sky clear below 12,000 feet AGL
Weather: no significant weather observed at this time

METAR text: OMFJ 161000Z 08010KT 060V120 8000 NSC 38/26 Q0999 A2951
Conditions at: OMFJ (FUJAIRAH INTL AR, AE) observed 1000 UTC 16 June 2019
Temperature: 38.0°C (100°F)
Dewpoint: 26.0°C (79°F) [RH = 51%]
Pressure (altimeter): 29.50 inches Hg (999.0 mb)
Winds: from the E (80 degrees) at 12 MPH (10 knots; 5.1 m/s)
Visibility: 5 miles ( 8 km)
Ceiling: at least 12,000 feet AGL
Clouds: sky clear below 12,000 feet AGL
Weather: no significant weather observed at this time

METAR text: OMFJ 160900Z 09007KT 8000 NSC 40/20 Q1000 RMK A2953
Conditions at: OMFJ (FUJAIRAH INTL AR, AE) observed 0900 UTC 16 June 2019
Temperature: 40.0°C (104°F)
Dewpoint: 20.0°C (68°F) [RH = 32%]
Pressure (altimeter): 29.53 inches Hg (1000.0 mb)
Winds: from the E (90 degrees) at 8 MPH (7 knots; 3.6 m/s)
Visibility: 5 miles ( 8 km)
Ceiling: at least 12,000 feet AGL
Clouds: sky clear below 12,000 feet AGL
Weather: no significant weather observed at this time

METAR text: OMFJ 160800Z 11005KT 040V150 8000 NSC 39/26 Q1000 RMK A2954
Conditions at: OMFJ (FUJAIRAH INTL AR, AE) observed 0800 UTC 16 June 2019
Temperature: 39.0°C (102°F)
Dewpoint: 26.0°C (79°F) [RH = 48%]
Pressure (altimeter): 29.53 inches Hg (1000.0 mb)
Winds: from the ESE (110 degrees) at 6 MPH (5 knots; 2.6 m/s)
Visibility: 5 miles ( 8 km)
Ceiling: at least 12,000 feet AGL
Clouds: sky clear below 12,000 feet AGL
Weather: no significant weather observed at this time

METAR text: OMFJ 160700Z 10007KT 070V170 8000 NSC 38/27 Q1000 A2955
Conditions at: OMFJ (FUJAIRAH INTL AR, AE) observed 0700 UTC 16 June 2019
Temperature: 38.0°C (100°F)
Dewpoint: 27.0°C (81°F) [RH = 54%]
Pressure (altimeter): 29.53 inches Hg (1000.0 mb)
Winds: from the E (100 degrees) at 8 MPH (7 knots; 3.6 m/s)
Visibility: 5 miles ( 8 km)
Ceiling: at least 12,000 feet AGL
Clouds: sky clear below 12,000 feet AGL
Weather: no significant weather observed at this time

METAR text: OMFJ 160600Z 09010KT 6000 NSC 38/24 Q1000 A2954
Conditions at: OMFJ (FUJAIRAH INTL AR, AE) observed 0600 UTC 16 June 2019
Temperature: 38.0°C (100°F)
Dewpoint: 24.0°C (75°F) [RH = 45%]
Pressure (altimeter): 29.53 inches Hg (1000.0 mb)
Winds: from the E (90 degrees) at 12 MPH (10 knots; 5.1 m/s)
Visibility: 4 miles ( 6 km)
Ceiling: at least 12,000 feet AGL
Clouds: sky clear below 12,000 feet AGL
Weather: no significant weather observed at this time

METAR text: OMFJ 160500Z 16009KT 140V200 6000 NSC 37/25 Q0999 A2952
Conditions at: OMFJ (FUJAIRAH INTL AR, AE) observed 0500 UTC 16 June 2019
Temperature: 37.0°C (99°F)
Dewpoint: 25.0°C (77°F) [RH = 50%]
Pressure (altimeter): 29.50 inches Hg (999.0 mb)
Winds: from the SSE (160 degrees) at 10 MPH (9 knots; 4.6 m/s)
Visibility: 4 miles ( 6 km)
Ceiling: at least 12,000 feet AGL
Clouds: sky clear below 12,000 feet AGL
Weather: no significant weather observed at this time

METAR text: OMFJ 160400Z 31003KT 6000 NSC 39/23 Q0999 A2951
Conditions at: OMFJ (FUJAIRAH INTL AR, AE) observed 0400 UTC 16 June 2019
Temperature: 39.0°C (102°F)
Dewpoint: 23.0°C (73°F) [RH = 40%]
Pressure (altimeter): 29.50 inches Hg (999.0 mb)
Winds: from the NW (310 degrees) at 3 MPH (3 knots; 1.5 m/s)
Visibility: 4 miles ( 6 km)
Ceiling: at least 12,000 feet AGL
Clouds: sky clear below 12,000 feet AGL
Weather: no significant weather observed at this time

METAR text: OMFJ 160300Z 08001KT 6000 NSC 35/29 Q0999 A2951
Conditions at: OMFJ (FUJAIRAH INTL AR, AE) observed 0300 UTC 16 June 2019
Temperature: 35.0°C (95°F)
Dewpoint: 29.0°C (84°F) [RH = 71%]
Pressure (altimeter): 29.50 inches Hg (999.0 mb)
Winds: from the E (80 degrees) at 1 MPH (1 knots; 0.5 m/s)
Visibility: 4 miles ( 6 km)
Ceiling: at least 12,000 feet AGL
Clouds: sky clear below 12,000 feet AGL
Weather: no significant weather observed at this time

METAR text: OMFJ 160200Z 36001KT 6000 NSC 33/29 Q0998 RMK A2949
Conditions at: OMFJ (FUJAIRAH INTL AR, AE) observed 0200 UTC 16 June 2019
Temperature: 33.0°C (91°F)
Dewpoint: 29.0°C (84°F) [RH = 80%]
Pressure (altimeter): 29.47 inches Hg (998.0 mb)
Winds: from the N (360 degrees) at 1 MPH (1 knots; 0.5 m/s)
Visibility: 4 miles ( 6 km)
Ceiling: at least 12,000 feet AGL
Clouds: sky clear below 12,000 feet AGL
Weather: no significant weather observed at this time

METAR text: OMFJ 160100Z 22001KT 7000 NSC 33/29 Q0997 A2947
Conditions at: OMFJ (FUJAIRAH INTL AR, AE) observed 0100 UTC 16 June 2019
Temperature: 33.0°C (91°F)
Dewpoint: 29.0°C (84°F) [RH = 80%]
Pressure (altimeter): 29.44 inches Hg (997.0 mb)
Winds: from the SW (220 degrees) at 1 MPH (1 knots; 0.5 m/s)
Visibility: 4 miles ( 7 km)
Ceiling: at least 12,000 feet AGL
Clouds: sky clear below 12,000 feet AGL
Weather: no significant weather observed at this time

METAR text: OMFJ 160000Z 17002KT 7000 NSC 33/29 Q0997 A2946
Conditions at: OMFJ (FUJAIRAH INTL AR, AE) observed 0000 UTC 16 June 2019
Temperature: 33.0°C (91°F)
Dewpoint: 29.0°C (84°F) [RH = 80%]
Pressure (altimeter): 29.44 inches Hg (997.0 mb)
Winds: from the S (170 degrees) at 2 MPH (2 knots; 1.0 m/s)
Visibility: 4 miles ( 7 km)
Ceiling: at least 12,000 feet AGL
Clouds: sky clear below 12,000 feet AGL
Weather: no significant weather observed at this time

METAR text: OMFJ 152300Z 08001KT 7000 NSC 34/29 Q0997 RMK A2945
Conditions at: OMFJ (FUJAIRAH INTL AR, AE) observed 2300 UTC 15 June 2019
Temperature: 34.0°C (93°F)
Dewpoint: 29.0°C (84°F) [RH = 75%]
Pressure (altimeter): 29.44 inches Hg (997.0 mb)
Winds: from the E (80 degrees) at 1 MPH (1 knots; 0.5 m/s)
Visibility: 4 miles ( 7 km)
Ceiling: at least 12,000 feet AGL
Clouds: sky clear below 12,000 feet AGL
Weather: no significant weather observed at this time

METAR text: OMFJ 152200Z 04007KT 7000 NSC 34/29 Q0997 A2946
Conditions at: OMFJ (FUJAIRAH INTL AR, AE) observed 2200 UTC 15 June 2019
Temperature: 34.0°C (93°F)
Dewpoint: 29.0°C (84°F) [RH = 75%]
Pressure (altimeter): 29.44 inches Hg (997.0 mb)
Winds: from the NE (40 degrees) at 8 MPH (7 knots; 3.6 m/s)
Visibility: 4 miles ( 7 km)
Ceiling: at least 12,000 feet AGL
Clouds: sky clear below 12,000 feet AGL
Weather: no significant weather observed at this time

METAR text: OMFJ 152100Z 09003KT 7000 NSC 34/29 Q0998 A2948
Conditions at: OMFJ (FUJAIRAH INTL AR, AE) observed 2100 UTC 15 June 2019
Temperature: 34.0°C (93°F)
Dewpoint: 29.0°C (84°F) [RH = 75%]
Pressure (altimeter): 29.47 inches Hg (998.0 mb)
Winds: from the E (90 degrees) at 3 MPH (3 knots; 1.5 m/s)
Visibility: 4 miles ( 7 km)
Ceiling: at least 12,000 feet AGL
Clouds: sky clear below 12,000 feet AGL
Weather: no significant weather observed at this time

METAR text: OMFJ 152000Z 06009KT 7000 NSC 35/29 Q0998 A2948
Conditions at: OMFJ (FUJAIRAH INTL AR, AE) observed 2000 UTC 15 June 2019
Temperature: 35.0°C (95°F)
Dewpoint: 29.0°C (84°F) [RH = 71%]
Pressure (altimeter): 29.47 inches Hg (998.0 mb)
Winds: from the ENE (60 degrees) at 10 MPH (9 knots; 4.6 m/s)
Visibility: 4 miles ( 7 km)
Ceiling: at least 12,000 feet AGL
Clouds: sky clear below 12,000 feet AGL
Weather: no significant weather observed at this time

METAR text: OMFJ 151900Z 17004KT 7000 NSC 36/23 Q0998 RMK A2948
Conditions at: OMFJ (FUJAIRAH INTL AR, AE) observed 1900 UTC 15 June 2019
Temperature: 36.0°C (97°F)
Dewpoint: 23.0°C (73°F) [RH = 47%]
Pressure (altimeter): 29.47 inches Hg (998.0 mb)
Winds: from the S (170 degrees) at 5 MPH (4 knots; 2.1 m/s)
Visibility: 4 miles ( 7 km)
Ceiling: at least 12,000 feet AGL
Clouds: sky clear below 12,000 feet AGL
Weather: no significant weather observed at this time

METAR text: OMFJ 151800Z 16003KT 7000 NSC 35/27 Q0998 RMK A2948
Conditions at: OMFJ (FUJAIRAH INTL AR, AE) observed 1800 UTC 15 June 2019
Temperature: 35.0°C (95°F)
Dewpoint: 27.0°C (81°F) [RH = 63%]
Pressure (altimeter): 29.47 inches Hg (998.0 mb)
Winds: from the SSE (160 degrees) at 3 MPH (3 knots; 1.5 m/s)
Visibility: 4 miles ( 7 km)
Ceiling: at least 12,000 feet AGL
Clouds: sky clear below 12,000 feet AGL
Weather: no significant weather observed at this time

METAR text: OMFJ 151700Z 24003KT 7000 NSC 36/26 Q0998 A2948
Conditions at: OMFJ (FUJAIRAH INTL AR, AE) observed 1700 UTC 15 June 2019
Temperature: 36.0°C (97°F)
Dewpoint: 26.0°C (79°F) [RH = 57%]
Pressure (altimeter): 29.47 inches Hg (998.0 mb)
Winds: from the WSW (240 degrees) at 3 MPH (3 knots; 1.5 m/s)
Visibility: 4 miles ( 7 km)
Ceiling: at least 12,000 feet AGL
Clouds: sky clear below 12,000 feet AGL
Weather: no significant weather observed at this time

METAR text: OMFJ 151600Z 11008KT 7000 NSC 35/29 Q0998 RMK A2948
Conditions at: OMFJ (FUJAIRAH INTL AR, AE) observed 1600 UTC 15 June 2019
Temperature: 35.0°C (95°F)
Dewpoint: 29.0°C (84°F) [RH = 71%]
Pressure (altimeter): 29.47 inches Hg (998.0 mb)
Winds: from the ESE (110 degrees) at 9 MPH (8 knots; 4.1 m/s)
Visibility: 4 miles ( 7 km)
Ceiling: at least 12,000 feet AGL
Clouds: sky clear below 12,000 feet AGL
Weather: no significant weather observed at this time

METAR text: OMFJ 151500Z 19004KT 160V230 8000 NSC 37/22 Q0997 RMK A2946
Conditions at: OMFJ (FUJAIRAH INTL AR, AE) observed 1500 UTC 15 June 2019
Temperature: 37.0°C (99°F)
Dewpoint: 22.0°C (72°F) [RH = 42%]
Pressure (altimeter): 29.44 inches Hg (997.0 mb)
Winds: from the S (190 degrees) at 5 MPH (4 knots; 2.1 m/s)
Visibility: 5 miles ( 8 km)
Ceiling: at least 12,000 feet AGL
Clouds: sky clear below 12,000 feet AGL
Weather: no significant weather observed at this time

METAR text: OMFJ 151400Z 11006KT 8000 NSC 38/22 Q0997 RMK A2946
Conditions at: OMFJ (FUJAIRAH INTL AR, AE) observed 1400 UTC 15 June 2019
Temperature: 38.0°C (100°F)
Dewpoint: 22.0°C (72°F) [RH = 40%]
Pressure (altimeter): 29.44 inches Hg (997.0 mb)
Winds: from the ESE (110 degrees) at 7 MPH (6 knots; 3.1 m/s)
Visibility: 5 miles ( 8 km)
Ceiling: at least 12,000 feet AGL
Clouds: sky clear below 12,000 feet AGL
Weather: no significant weather observed at this time

METAR text: OMFJ 151300Z 10008KT 8000 NSC 39/18 Q0997 RMK A2945
Conditions at: OMFJ (FUJAIRAH INTL AR, AE) observed 1300 UTC 15 June 2019
Temperature: 39.0°C (102°F)
Dewpoint: 18.0°C (64°F) [RH = 30%]
Pressure (altimeter): 29.44 inches Hg (997.0 mb)
Winds: from the E (100 degrees) at 9 MPH (8 knots; 4.1 m/s)
Visibility: 5 miles ( 8 km)
Ceiling: at least 12,000 feet AGL
Clouds: sky clear below 12,000 feet AGL
Weather: no significant weather observed at this time

METAR text: OMFJ 151200Z 11006KT 070V140 8000 NSC 41/16 Q0997 RMK A2945
Conditions at: OMFJ (FUJAIRAH INTL AR, AE) observed 1200 UTC 15 June 2019
Temperature: 41.0°C (106°F)
Dewpoint: 16.0°C (61°F) [RH = 23%]
Pressure (altimeter): 29.44 inches Hg (997.0 mb)
Winds: from the ESE (110 degrees) at 7 MPH (6 knots; 3.1 m/s)
Visibility: 5 miles ( 8 km)
Ceiling: at least 12,000 feet AGL
Clouds: sky clear below 12,000 feet AGL
Weather: no significant weather observed at this time

METAR text: OMFJ 151100Z 06008KT 8000 NSC 43/05 Q0997 RMK A2945
Conditions at: OMFJ (FUJAIRAH INTL AR, AE) observed 1100 UTC 15 June 2019
Temperature: 43.0°C (109°F)
Dewpoint: 5.0°C (41°F) [RH = 10%]
Pressure (altimeter): 29.44 inches Hg (997.0 mb)
Winds: from the ENE (60 degrees) at 9 MPH (8 knots; 4.1 m/s)
Visibility: 5 miles ( 8 km)
Ceiling: at least 12,000 feet AGL
Clouds: sky clear below 12,000 feet AGL
Weather: no significant weather observed at this time

METAR text: OMFJ 151000Z 09007KT 8000 NSC 42/17 Q0997 RMK A2946
Conditions at: OMFJ (FUJAIRAH INTL AR, AE) observed 1000 UTC 15 June 2019
Temperature: 42.0°C (108°F)
Dewpoint: 17.0°C (63°F) [RH = 24%]
Pressure (altimeter): 29.44 inches Hg (997.0 mb)
Winds: from the E (90 degrees) at 8 MPH (7 knots; 3.6 m/s)
Visibility: 5 miles ( 8 km)
Ceiling: at least 12,000 feet AGL
Clouds: sky clear below 12,000 feet AGL
Weather: no significant weather observed at this time

METAR text: OMFJ 150900Z 11007KT 070V140 8000 NSC 42/12 Q0998 A2948
Conditions at: OMFJ (FUJAIRAH INTL AR, AE) observed 0900 UTC 15 June 2019
Temperature: 42.0°C (108°F)
Dewpoint: 12.0°C (54°F) [RH = 17%]
Pressure (altimeter): 29.47 inches Hg (998.0 mb)
Winds: from the ESE (110 degrees) at 8 MPH (7 knots; 3.6 m/s)
Visibility: 5 miles ( 8 km)
Ceiling: at least 12,000 feet AGL
Clouds: sky clear below 12,000 feet AGL
Weather: no significant weather observed at this time

METAR text: OMFJ 150800Z 10006KT 070V150 7000 NSC 42/09 Q0999 A2950
Conditions at: OMFJ (FUJAIRAH INTL AR, AE) observed 0800 UTC 15 June 2019
Temperature: 42.0°C (108°F)
Dewpoint: 9.0°C (48°F) [RH = 14%]
Pressure (altimeter): 29.50 inches Hg (999.0 mb)
Winds: from the E (100 degrees) at 7 MPH (6 knots; 3.1 m/s)
Visibility: 4 miles ( 7 km)
Ceiling: at least 12,000 feet AGL
Clouds: sky clear below 12,000 feet AGL
Weather: no significant weather observed at this time

METAR text: OMFJ 150700Z 10006KT 070V130 7000 NSC 40/19 Q0999 RMK A2952
Conditions at: OMFJ (FUJAIRAH INTL AR, AE) observed 0700 UTC 15 June 2019
Temperature: 40.0°C (104°F)
Dewpoint: 19.0°C (66°F) [RH = 30%]
Pressure (altimeter): 29.50 inches Hg (999.0 mb)
Winds: from the E (100 degrees) at 7 MPH (6 knots; 3.1 m/s)
Visibility: 4 miles ( 7 km)
Ceiling: at least 12,000 feet AGL
Clouds: sky clear below 12,000 feet AGL
Weather: no significant weather observed at this time

METAR text: OMFJ 150600Z 11007KT 6000 NSC 38/22 Q0999 RMK A2952
Conditions at: OMFJ (FUJAIRAH INTL AR, AE) observed 0600 UTC 15 June 2019
Temperature: 38.0°C (100°F)
Dewpoint: 22.0°C (72°F) [RH = 40%]
Pressure (altimeter): 29.50 inches Hg (999.0 mb)
Winds: from the ESE (110 degrees) at 8 MPH (7 knots; 3.6 m/s)
Visibility: 4 miles ( 6 km)
Ceiling: at least 12,000 feet AGL
Clouds: sky clear below 12,000 feet AGL
Weather: no significant weather observed at this time

METAR text: OMFJ 150500Z 28003KT 6000 NSC 38/25 Q0999 A2952
Conditions at: OMFJ (FUJAIRAH INTL AR, AE) observed 0500 UTC 15 June 2019
Temperature: 38.0°C (100°F)
Dewpoint: 25.0°C (77°F) [RH = 48%]
Pressure (altimeter): 29.50 inches Hg (999.0 mb)
Winds: from the W (280 degrees) at 3 MPH (3 knots; 1.5 m/s)
Visibility: 4 miles ( 6 km)
Ceiling: at least 12,000 feet AGL
Clouds: sky clear below 12,000 feet AGL
Weather: no significant weather observed at this time

Forecast for: OMFJ (FUJAIRAH INTL AR, AE)
Text: TAF OMFJ 161100Z 1612/1718 14005KT 8000 NSC
Forecast period: 1200 to 1400 UTC 16 June 2019
Forecast type: FROM: standard forecast or significant change
Winds: from the SE (140 degrees) at 6 MPH (5 knots; 2.6 m/s)
Visibility: 5 miles (8 km)
Ceiling: unknown
Clouds: missing
Weather: no significant weather forecast for this period
Text: BECMG 1614/1616 VRB03KT
Forecast period: 1400 UTC 16 June 2019 to 0400 UTC 17 June 2019
Forecast type: BECOMING: Conditions expected to become as follows by 1600 UTC 16 June 2019
Winds: variable direction winds at 3 MPH (3 knots; 1.5 m/s)
Visibility: 5 miles (8 km)
Ceiling: unknown
Clouds: missing
Weather: no significant weather forecast for this period
Text: PROB30 1620/1704 5000 HZ
Forecast period: 2000 UTC 16 June 2019 to 0400 UTC 17 June 2019
Forecast type: PROBABLE: 30 percent likelihood of the following during this time
Visibility: 3 miles (5 km)
Ceiling: unknown
Clouds: missing
Weather: HZ  (haze)
Text: BECMG 1704/1706 11008KT
Forecast period: 0400 to 1800 UTC 17 June 2019
Forecast type: BECOMING: Conditions expected to become as follows by 0600 UTC 17 June 2019
Winds: from the ESE (110 degrees) at 9 MPH (8 knots; 4.1 m/s)
Visibility: 5 miles (8 km)
Ceiling: unknown
Clouds: missing
Weather: no significant weather forecast for this period